LICA/SUF METAR and TAF weather

Enter ICAO airport designator
Station Type Date Time Source
LICA METAR 2020/12/01 21:50 UTC NOAA

LICA 012150Z AUTO 08007KT 9999 SCT034/// 11/10 Q1015


Station Type Date Time Source
LICA Decoded METAR 2020/12/01 21:50 UTC NOAA

Lamezia Terme, Italy (LICA) 38-54N 016-15E
Dec 01, 2020 - 04:50 PM EST / 2020.12.01 2150 UTC
Wind: from the E (080 degrees) at 8 MPH (7 KT):0
Visibility: greater than 7 mile(s):0
Sky conditions: partly cloudy
Temperature: 51 F (11 C)
Dew Point: 50 F (10 C)
Relative Humidity: 93%
Pressure (altimeter): 29.97 in. Hg (1015 hPa)
ob: LICA 012150Z AUTO 08007KT 9999 SCT034/// 11/10 Q1015
cycle: 22

Station Type Date Time Source
LICA TAF 2020/12/01 18:24 UTC NOAA

TAF LICA 011700Z 0118/0218 06010KT 9999 SCT020
TEMPO 0215/0218 TSRA

Example: see airport list